Ridgeway, Montana
Current Conditions -  °F | °C
As of 1:56 PM on Monday 22 Dec 2014 (Local Time) from KBHK Reporting Station
Light Snow Light Snow  
Wind Chill: 12°   Ceiling: 1000
Heat Index: 26°   Visibility: 1mi
Dew Point: 23°   Wind: 21mph
Humidity: 88%   Direction: 330°NNW
Pressure: 29.65"   Gusts: 32mph
Location:  45.49°N, 104.51°W
Report Text: KBHK 222056Z AUTO 33018G28KT 1SM -SN BR BKN010 OVC017 M03/M05 A2965 RMK AO2 PK WND 32026/2052 P0000 T10331050
Loading
Personal Weather Stations






























Interactive Weather Map New forecast layout! Learn more

10-Day Weather Forecast

Advertisements
Track Severe Weather on mobile